Anjeliersgracht — PCGQ — position and weather

sailwx.info

Track history (hours):
 
Tides and Currents Weather Stations Pressure Air Temp Water Temp Dewpoint Dewpoint Depression Visibility Wind Speed Wind Dir Waves Ship Positions

Anjeliersgracht

Last reported at 2015-Mar-15 11:24 UTC. Time now 2015-Mar-29 23:52 UTC.
Position N 50°36' E 000°23'.
Warning: this ship's position is 14 days out of date.

Length 130 m; beam 19 m; draft 9 m.

Type: Cargo ship. MMSI: 244716000.

Date/timePositionNaut miles runAvg speedWind from/ knotsBaromVisibWave heightAir tempDewpointWater temp
2015-Mar-15 11:24N 50°36' E 000°23'1113.2
2015-Mar-15 10:33N 50°40' E 000°39'1313.3
2015-Mar-15 09:33N 50°48' E 000°56'1312.6
2015-Mar-15 08:31N 50°56' E 001°12'1111.8
2015-Mar-15 07:33N 51°03' E 001°26'1111.3
2015-Mar-15 06:33N 51°10' E 001°40'1111.2
2015-Mar-15 05:33N 51°19' E 001°52'1010.0
2015-Mar-15 04:33N 51°23' E 002°06'1212.0
2015-Mar-15 03:33N 51°22' E 002°25'1312.9
2015-Mar-15 02:33N 51°22' E 002°46'1414.4
2015-Mar-15 01:33N 51°24' E 003°09'1515.2
2015-Mar-15 00:33N 51°26' E 003°33'1312.9
2015-Mar-14 23:33N 51°21' E 003°52'1110.5
2015-Mar-14 22:33N 51°23' E 004°09'5 5.4
2015-Mar-14 21:34N 51°21' E 004°17'0 0.0
2015-Mar-14 20:34N 51°21' E 004°17'3 3.2
2015-Mar-14 19:33N 51°18' E 004°20'2 2.3
2015-Mar-14 18:33N 51°17' E 004°23'0 0.0
2015-Mar-14 17:33N 51°17' E 004°23'0 0.0
2015-Mar-14 16:30N 51°17' E 004°23'0 0.0
2015-Mar-14 15:30N 51°17' E 004°23'0 0.0
2015-Mar-14 14:33N 51°17' E 004°23'0 0.0
2015-Mar-14 13:33N 51°17' E 004°23'0 0.0
2015-Mar-14 12:33N 51°17' E 004°23'0 0.0
2015-Mar-14 11:33N 51°17' E 004°23'0 0.0
2015-Mar-14 10:33N 51°17' E 004°23'0 0.0
2015-Mar-14 09:33N 51°17' E 004°23'0 0.0
2015-Mar-14 08:30N 51°17' E 004°23'0 0.0
2015-Mar-14 07:33N 51°17' E 004°23'0 0.0
2015-Mar-14 06:33N 51°17' E 004°23'0 0.0
2015-Mar-14 05:33N 51°17' E 004°23'0 0.0
2015-Mar-14 04:33N 51°17' E 004°23'0 0.0
2015-Mar-14 03:33N 51°17' E 004°23'0 0.0
2015-Mar-14 02:33N 51°17' E 004°23'0 0.0
2015-Mar-14 01:33N 51°17' E 004°23'0 0.0
2015-Mar-14 00:30N 51°17' E 004°23'0 0.0
2015-Mar-13 23:33N 51°17' E 004°23'0 0.0
2015-Mar-13 22:33N 51°17' E 004°23'0 0.0
2015-Mar-13 21:33N 51°17' E 004°23'0 0.0
2015-Mar-13 20:33N 51°17' E 004°23'0 0.0
2015-Mar-13 19:33N 51°17' E 004°23'0 0.0
2015-Mar-13 18:33N 51°17' E 004°23'0 0.0
2015-Mar-13 17:32N 51°17' E 004°23'0 0.0
2015-Mar-13 16:32N 51°17' E 004°23'0 0.0
2015-Mar-13 15:32N 51°17' E 004°23'0 0.2
2015-Mar-13 14:33N 51°17' E 004°22'1 0.7
2015-Mar-13 13:32N 51°16' E 004°21'0 0.0
2015-Mar-13 12:31N 51°16' E 004°21'0 0.0
2015-Mar-13 11:31N 51°16' E 004°21'0 0.0
2015-Mar-13 10:31N 51°16' E 004°21'0 0.0
2015-Mar-13 09:31N 51°16' E 004°21'0 0.0
2015-Mar-13 08:31N 51°16' E 004°21'0 0.0
2015-Mar-13 07:31N 51°16' E 004°21'0 0.0
2015-Mar-13 06:31N 51°16' E 004°21'0 0.0
2015-Mar-13 05:31N 51°16' E 004°21'0 0.0
2015-Mar-13 04:31N 51°16' E 004°21'0 0.0
2015-Mar-13 03:31N 51°16' E 004°21'0 0.0
2015-Mar-13 02:31N 51°16' E 004°21'0 0.0
2015-Mar-13 01:31N 51°16' E 004°21'0 0.0
2015-Mar-13 00:31N 51°16' E 004°21'0 0.0
2015-Mar-12 23:31N 51°16' E 004°21'0 0.0
2015-Mar-12 22:31N 51°16' E 004°21'0 0.0
2015-Mar-12 21:31N 51°16' E 004°21'0 0.0
2015-Mar-12 20:31N 51°16' E 004°21'0 0.0
2015-Mar-12 19:31N 51°16' E 004°21'0 0.0
2015-Mar-12 18:31N 51°16' E 004°21'0 0.0
2015-Mar-12 17:31N 51°16' E 004°21'0 0.0
2015-Mar-12 16:28N 51°16' E 004°21'0 0.0
2015-Mar-12 15:28N 51°16' E 004°21'0 0.0
2015-Mar-12 14:31N 51°16' E 004°21'0 0.0
2015-Mar-12 13:31N 51°16' E 004°21'0 0.0
2015-Mar-12 12:31N 51°16' E 004°21'0 0.0
2015-Mar-12 11:31N 51°16' E 004°21'0 0.0
2015-Mar-12 10:31N 51°16' E 004°21'0 0.0
2015-Mar-12 09:31N 51°16' E 004°21'0 0.0
2015-Mar-12 08:31N 51°16' E 004°21'1 0.6
2015-Mar-12 07:33N 51°16' E 004°20'0 0.4
2015-Mar-12 06:34N 51°17' E 004°20'9 8.9
2015-Mar-12 05:33N 51°24' E 004°11'1110.8
2015-Mar-12 04:34N 51°22' E 003°54'1312.9
2015-Mar-12 03:34N 51°26' E 003°35'1615.5
2015-Mar-12 02:31N 51°24' E 003°09'1313.7
2015-Mar-12 01:33N 51°22' E 002°48'1212.4
2015-Mar-12 00:33N 51°21' E 002°28'1212.1
2015-Mar-11 23:33N 51°16' E 002°12'1211.9
2015-Mar-11 22:33N 51°10' E 001°55'1211.7
2015-Mar-11 21:34N 51°03' E 001°39'1211.7
2015-Mar-11 20:31N 50°54' E 001°27'1412.0
2015-Mar-11 19:19N 50°40' E 001°19'2212.2
2015-Mar-11 17:33N 50°28' E 000°51'49010.9
2015-Mar-09 20:33N 43°37' W 005°40'3 0.5
2015-Mar-09 14:10N 43°34' W 005°42'0 0.0
2015-Mar-09 13:28N 43°34' W 005°42'0 0.0
2015-Mar-09 12:28N 43°34' W 005°42'0 0.0
2015-Mar-09 11:16N 43°34' W 005°42'0 0.0
2015-Mar-09 10:04N 43°34' W 005°42'0 0.0
2015-Mar-09 05:28N 43°34' W 005°42'0 0.0
2015-Mar-09 02:22N 43°34' W 005°42'0 0.0
2015-Mar-09 01:10N 43°34' W 005°42'0 0.0
2015-Mar-08 23:10N 43°34' W 005°42'0 0.0
2015-Mar-08 19:04N 43°34' W 005°42'0 0.0
2015-Mar-08 18:04N 43°34' W 005°42'0 0.0
2015-Mar-08 16:10N 43°34' W 005°42'0 0.0
2015-Mar-08 15:10N 43°34' W 005°42'0 0.0
2015-Mar-08 14:10N 43°34' W 005°42'0 0.0
2015-Mar-08 13:28N 43°34' W 005°42'0 0.0
2015-Mar-08 10:21N 43°34' W 005°42'0 0.0
2015-Mar-08 06:27N 43°34' W 005°42'0 0.0
2015-Mar-08 05:21N 43°34' W 005°42'0 0.0
2015-Mar-08 04:33N 43°34' W 005°42'0 0.0
2015-Mar-08 03:03N 43°34' W 005°42'0 0.0
2015-Mar-07 18:15N 43°34' W 005°42'0 0.0
2015-Mar-07 16:15N 43°34' W 005°42'0 0.0
2015-Mar-07 15:33N 43°34' W 005°42'0 0.0
2015-Mar-06 13:25N 43°34' W 005°42'4 5.1
2015-Mar-06 12:33N 43°38' W 005°40'1713.9
2015-Mar-06 11:18N 43°52' W 005°26'14 1.2
2015-Mar-05 23:29N 43°42' W 005°39'6 4.6
2015-Mar-05 22:10N 43°37' W 005°42'1 0.3
2015-Mar-05 20:16N 43°36' W 005°43'0 0.1
2015-Mar-05 19:22N 43°36' W 005°43'0 0.0
2015-Mar-05 18:28N 43°36' W 005°43'0 0.0
2015-Mar-05 15:04N 43°36' W 005°43'  
Track history (hours):
 
Tides and Currents Weather Stations Pressure Air Temp Water Temp Dewpoint Dewpoint Depression Visibility Wind Speed Wind Dir Waves Ship Positions

Anjeliersgracht

Last reported at 2015-Mar-15 11:24 UTC. Time now 2015-Mar-29 23:52 UTC.
Position N 50°36' E 000°23'.
Warning: this ship's position is 14 days out of date.

Length 130 m; beam 19 m; draft 9 m.

Type: Cargo ship. MMSI: 244716000.

Date/timePositionNaut miles runAvg speedWind from/ knotsBaromVisibWave heightAir tempDewpointWater temp
2015-Mar-15 11:24N 50°36' E 000°23'1113.2
2015-Mar-15 10:33N 50°40' E 000°39'1313.3
2015-Mar-15 09:33N 50°48' E 000°56'1312.6
2015-Mar-15 08:31N 50°56' E 001°12'1111.8
2015-Mar-15 07:33N 51°03' E 001°26'1111.3
2015-Mar-15 06:33N 51°10' E 001°40'1111.2
2015-Mar-15 05:33N 51°19' E 001°52'1010.0
2015-Mar-15 04:33N 51°23' E 002°06'1212.0
2015-Mar-15 03:33N 51°22' E 002°25'1312.9
2015-Mar-15 02:33N 51°22' E 002°46'1414.4
2015-Mar-15 01:33N 51°24' E 003°09'1515.2
2015-Mar-15 00:33N 51°26' E 003°33'1312.9
2015-Mar-14 23:33N 51°21' E 003°52'1110.5
2015-Mar-14 22:33N 51°23' E 004°09'5 5.4
2015-Mar-14 21:34N 51°21' E 004°17'0 0.0
2015-Mar-14 20:34N 51°21' E 004°17'3 3.2
2015-Mar-14 19:33N 51°18' E 004°20'2 2.3
2015-Mar-14 18:33N 51°17' E 004°23'0 0.0
2015-Mar-14 17:33N 51°17' E 004°23'0 0.0
2015-Mar-14 16:30N 51°17' E 004°23'0 0.0
2015-Mar-14 15:30N 51°17' E 004°23'0 0.0
2015-Mar-14 14:33N 51°17' E 004°23'0 0.0
2015-Mar-14 13:33N 51°17' E 004°23'0 0.0
2015-Mar-14 12:33N 51°17' E 004°23'0 0.0
2015-Mar-14 11:33N 51°17' E 004°23'0 0.0
2015-Mar-14 10:33N 51°17' E 004°23'0 0.0
2015-Mar-14 09:33N 51°17' E 004°23'0 0.0
2015-Mar-14 08:30N 51°17' E 004°23'0 0.0
2015-Mar-14 07:33N 51°17' E 004°23'0 0.0
2015-Mar-14 06:33N 51°17' E 004°23'0 0.0
2015-Mar-14 05:33N 51°17' E 004°23'0 0.0
2015-Mar-14 04:33N 51°17' E 004°23'0 0.0
2015-Mar-14 03:33N 51°17' E 004°23'0 0.0
2015-Mar-14 02:33N 51°17' E 004°23'0 0.0
2015-Mar-14 01:33N 51°17' E 004°23'0 0.0
2015-Mar-14 00:30N 51°17' E 004°23'0 0.0
2015-Mar-13 23:33N 51°17' E 004°23'0 0.0
2015-Mar-13 22:33N 51°17' E 004°23'0 0.0
2015-Mar-13 21:33N 51°17' E 004°23'0 0.0
2015-Mar-13 20:33N 51°17' E 004°23'0 0.0
2015-Mar-13 19:33N 51°17' E 004°23'0 0.0
2015-Mar-13 18:33N 51°17' E 004°23'0 0.0
2015-Mar-13 17:32N 51°17' E 004°23'0 0.0
2015-Mar-13 16:32N 51°17' E 004°23'0 0.0
2015-Mar-13 15:32N 51°17' E 004°23'0 0.2
2015-Mar-13 14:33N 51°17' E 004°22'1 0.7
2015-Mar-13 13:32N 51°16' E 004°21'0 0.0
2015-Mar-13 12:31N 51°16' E 004°21'0 0.0
2015-Mar-13 11:31N 51°16' E 004°21'0 0.0
2015-Mar-13 10:31N 51°16' E 004°21'0 0.0
2015-Mar-13 09:31N 51°16' E 004°21'0 0.0
2015-Mar-13 08:31N 51°16' E 004°21'0 0.0
2015-Mar-13 07:31N 51°16' E 004°21'0 0.0
2015-Mar-13 06:31N 51°16' E 004°21'0 0.0
2015-Mar-13 05:31N 51°16' E 004°21'0 0.0
2015-Mar-13 04:31N 51°16' E 004°21'0 0.0
2015-Mar-13 03:31N 51°16' E 004°21'0 0.0
2015-Mar-13 02:31N 51°16' E 004°21'0 0.0
2015-Mar-13 01:31N 51°16' E 004°21'0 0.0
2015-Mar-13 00:31N 51°16' E 004°21'0 0.0
2015-Mar-12 23:31N 51°16' E 004°21'0 0.0
2015-Mar-12 22:31N 51°16' E 004°21'0 0.0
2015-Mar-12 21:31N 51°16' E 004°21'0 0.0
2015-Mar-12 20:31N 51°16' E 004°21'0 0.0
2015-Mar-12 19:31N 51°16' E 004°21'0 0.0
2015-Mar-12 18:31N 51°16' E 004°21'0 0.0
2015-Mar-12 17:31N 51°16' E 004°21'0 0.0
2015-Mar-12 16:28N 51°16' E 004°21'0 0.0
2015-Mar-12 15:28N 51°16' E 004°21'0 0.0
2015-Mar-12 14:31N 51°16' E 004°21'0 0.0
2015-Mar-12 13:31N 51°16' E 004°21'0 0.0
2015-Mar-12 12:31N 51°16' E 004°21'0 0.0
2015-Mar-12 11:31N 51°16' E 004°21'0 0.0
2015-Mar-12 10:31N 51°16' E 004°21'0 0.0
2015-Mar-12 09:31N 51°16' E 004°21'0 0.0
2015-Mar-12 08:31N 51°16' E 004°21'1 0.6
2015-Mar-12 07:33N 51°16' E 004°20'0 0.4
2015-Mar-12 06:34N 51°17' E 004°20'9 8.9
2015-Mar-12 05:33N 51°24' E 004°11'1110.8
2015-Mar-12 04:34N 51°22' E 003°54'1312.9
2015-Mar-12 03:34N 51°26' E 003°35'1615.5
2015-Mar-12 02:31N 51°24' E 003°09'1313.7
2015-Mar-12 01:33N 51°22' E 002°48'1212.4
2015-Mar-12 00:33N 51°21' E 002°28'1212.1
2015-Mar-11 23:33N 51°16' E 002°12'1211.9
2015-Mar-11 22:33N 51°10' E 001°55'1211.7
2015-Mar-11 21:34N 51°03' E 001°39'1211.7
2015-Mar-11 20:31N 50°54' E 001°27'1412.0
2015-Mar-11 19:19N 50°40' E 001°19'2212.2
2015-Mar-11 17:33N 50°28' E 000°51'49010.9
2015-Mar-09 20:33N 43°37' W 005°40'3 0.5
2015-Mar-09 14:10N 43°34' W 005°42'0 0.0
2015-Mar-09 13:28N 43°34' W 005°42'0 0.0
2015-Mar-09 12:28N 43°34' W 005°42'0 0.0
2015-Mar-09 11:16N 43°34' W 005°42'0 0.0
2015-Mar-09 10:04N 43°34' W 005°42'0 0.0
2015-Mar-09 05:28N 43°34' W 005°42'0 0.0
2015-Mar-09 02:22N 43°34' W 005°42'0 0.0
2015-Mar-09 01:10N 43°34' W 005°42'0 0.0
2015-Mar-08 23:10N 43°34' W 005°42'0 0.0
2015-Mar-08 19:04N 43°34' W 005°42'0 0.0
2015-Mar-08 18:04N 43°34' W 005°42'0 0.0
2015-Mar-08 16:10N 43°34' W 005°42'0 0.0
2015-Mar-08 15:10N 43°34' W 005°42'0 0.0
2015-Mar-08 14:10N 43°34' W 005°42'0 0.0
2015-Mar-08 13:28N 43°34' W 005°42'0 0.0
2015-Mar-08 10:21N 43°34' W 005°42'0 0.0
2015-Mar-08 06:27N 43°34' W 005°42'0 0.0
2015-Mar-08 05:21N 43°34' W 005°42'0 0.0
2015-Mar-08 04:33N 43°34' W 005°42'0 0.0
2015-Mar-08 03:03N 43°34' W 005°42'0 0.0
2015-Mar-07 18:15N 43°34' W 005°42'0 0.0
2015-Mar-07 16:15N 43°34' W 005°42'0 0.0
2015-Mar-07 15:33N 43°34' W 005°42'0 0.0
2015-Mar-06 13:25N 43°34' W 005°42'4 5.1
2015-Mar-06 12:33N 43°38' W 005°40'1713.9
2015-Mar-06 11:18N 43°52' W 005°26'14 1.2
2015-Mar-05 23:29N 43°42' W 005°39'6 4.6
2015-Mar-05 22:10N 43°37' W 005°42'1 0.3
2015-Mar-05 20:16N 43°36' W 005°43'0 0.1
2015-Mar-05 19:22N 43°36' W 005°43'0 0.0
2015-Mar-05 18:28N 43°36' W 005°43'0 0.0
2015-Mar-05 15:04N 43°36' W 005°43'  

Dump ship's entire track history